Anaheim, CA

7:33 AM PST on December 05, 2016 (GMT -0800)
Orangethorpe/Brookhurst | | Change Station

Elev 125 ft 33.86 °N, 117.95 °W | Updated 32 seconds ago

Mostly Cloudy
Mostly Cloudy
48.4 °F
Feels Like 48 °F
N
0.0
Wind Variable Wind from East

Today
High -- | Low -- °F
--% Chance of Precip.
Yesterday
High -- | Low -- °F
Precip. -- in
Pressure 29.96 in
Visibility 10.0 miles
Clouds Scattered Clouds 900 ft
Mostly Cloudy 1300 ft
Windchill 48 °F
Dew Point 43 °F
Humidity 83%
Rainfall 0.00 in
Snow Depth Not available.
6:42 AM 4:42 PM
Waxing Crescent, 32% visible
SPECI KFUL 051502Z 00000KT 10SM SCT009 BKN013 10/M01 A2996 RMK AO2 T01001011
Pressure 29.96 in
Visibility 10.0 miles
Clouds Scattered Clouds 900 ft
Mostly Cloudy 1300 ft
Windchill 48 °F
Dew Point 43 °F
Humidity 83%
Rainfall 0.00 in
Snow Depth Not available.
6:42 AM 4:42 PM
Waxing Crescent, 32% visible
SPECI KFUL 051502Z 00000KT 10SM SCT009 BKN013 10/M01 A2996 RMK AO2 T01001011

10-Day Weather Forecast

Almanac

Astronomy

Dec. 05, 2016 Rise Set
Actual Time
Civil Twilight
Nautical Twilight
Astronomical Twilight
Moon
Length of Visible Light
Length of Day
Tomorrow will be .
, % of the Moon is Illuminated

Today's Extremes

State Highs State Lows

Community

WunderPhotos

Upload Photos

1,955,790 photos uploaded!

WunderBlog® & News

Nearby

Air Quality

  Air Quality AQ Index Pollutant
Not available.

Snow Depth

Station Depth Elevation

Earthquake Activity

City Distance Mag. Time & Date
Minimum magnitude displayed is 2.5.

Coastal Water Temperatures

Place Temperature

Stations

Nearby Weather Stations

Station Location Temp. Windchill Dew Point Humidity Wind Precip. Elev Updated Type
                   

Watches & Warnings

There are currently no watches in effect.